Main page
METAR-TAF:

METAR-TAF

Airports :

Vigo–Peinador Airport

Vigo, Spain

latitude: 42-13N, longitude: 008-38W, elevation: 264 m

Current weather observation

The report was made 41 minutes ago, at 05:00 UTC
Wind 1 kt from variable directions
Temperature 16°C
Humidity 94%
Pressure 1018 hPa
Visibility: 7000 m
Overcast at a height of 600 ft

METAR: LEVX 240500Z VRB01KT 7000 OVC006 16/15 Q1018 TEMPO 3000 BR BKN003

Time: 07:41 (05:41 UTC)

Forecast

The report was made 41 minutes ago, at 05:00 UTC
Forecast valid from 24 at 06 UTC to 25 at 06 UTC
Wind 6 kt from the West
Visibility 10 km or more
no clouds below 1500 m and no cumulonimbus
Probability 40% :
Temporary
from 24 at 06 UTC to 24 at 07 UTC
Visibility: 3000 m
Broken clouds at a height of 500 ft
mist

TAF: LEVX 240500Z 2406/2506 27006KT CAVOK TX23/2413Z TN14/2406Z PROB40 TEMPO 2406/2407 3000 BR BKN005

Weather observations and forecasts of more than 4000 airports (METAR and TAF reports).

The available stations are represented by yellow and red dots on the map.

Hover mouse over dot to see the name of the station.

Then click to see weather observations and forecasts.

To change the map : click on the green buttons with a black cross to zoom in, on the green button with a dash to zoom out, or on the green arrows for adjacent maps.


METAR-TAF: